Flight Track Log - Related Links

Times and Time Zones

All times are in EDT time to prevent confusion due to time zone crossing. See the ASH3770 flight status page for this flight to view local times or setup timezone preferences in your user account.

Time Position Orientation Groundspeed Altitude Reporting Facility
EDT Latitude Longitude Course Direction KTS MPH feet Rate Location/Type
Fri 10:41:04 PM 42.0000 -87.8667 77° East 147 169 2,500  Level Chicago TRACON
Fri 10:42:04 PM 42.0167 -87.8000 71° East 201 231 4,600 2,100 Climbing Chicago TRACON
Fri 10:43:04 PM 42.0333 -87.7167 75° East 267 307 6,700 2,497 Climbing Chicago TRACON
Fri 10:44:45 PM 42.0497 -87.5533 82° East 280 322 11,300 2,630 Climbing Chicago Center
Fri 10:45:46 PM 42.0644 -87.4428 80° East 293 337 13,800 2,146 Climbing Chicago Center
Fri 10:46:00 PM 42.0886 -87.1182 77° East  Level FlightAware Approximate
Fri 10:46:48 PM 42.0789 -87.3186 81° East 323 372 15,700  Level Chicago Center
Fri 10:47:49 PM 42.0997 -87.1553 80° East 360 414 18,000 2,213 Climbing Chicago Center
Fri 10:48:50 PM 42.1156 -87.0153 81° East 375 432 20,200 1,918 Climbing Chicago Center
Fri 10:49:51 PM 42.1194 -86.8644 88° East 395 455 21,900 1,805 Climbing Chicago Center
Fri 10:50:53 PM 42.1239 -86.7089 88° East 410 472 23,900 1,805 Climbing Chicago Center
Fri 10:51:54 PM 42.1300 -86.5453 87° East 422 486 25,600 1,672 Climbing Chicago Center
Fri 10:52:55 PM 42.1353 -86.3825 87° East 432 497 27,300 1,475 Climbing Chicago Center
Fri 10:53:56 PM 42.1397 -86.2175 88° East 439 505 28,600 1,171 Climbing Chicago Center
Fri 10:54:58 PM 42.1428 -86.0472 89° East 450 518 29,700 1,220 Climbing Chicago Center
Fri 10:55:59 PM 42.1408 -85.8536 91° East 461 531 31,100 1,230 Climbing Chicago Center
Fri 10:57:00 PM 42.1394 -85.6803 91° East 467 537 32,200 1,033 Climbing Chicago Center
Fri 10:58:01 PM 42.1375 -85.5039 91° East 475 547 33,200 1,086 Climbing Chicago Center
Fri 10:58:45 PM 42.1397 -85.3639 89° East 464 534 34,100 686 Climbing Cleveland Center
Fri 10:59:46 PM 42.1389 -85.1817 90° East 469 540 34,400 446 Climbing Cleveland Center
Fri 11:00:46 PM 42.1356 -84.9967 91° East 481 554 35,000 550 Climbing Cleveland Center
Fri 11:01:46 PM 42.1431 -84.8011 87° East 500 575 35,500 450 Climbing Cleveland Center
Fri 11:02:46 PM 42.1533 -84.6308 85° East 507 583 35,900 454 Climbing Cleveland Center
Fri 11:03:45 PM 42.1683 -84.4383 84° East 517 595 36,400 500 Climbing Cleveland Center
Fri 11:04:46 PM 42.1850 -84.2458 83° East 517 595 36,900 298 Climbing Cleveland Center
Fri 11:05:46 PM 42.1994 -84.0533 84° East 517 595 37,000 50 Climbing Cleveland Center
Fri 11:06:46 PM 42.2153 -83.8608 84° East 517 595 37,000  Level Cleveland Center
Fri 11:07:46 PM 42.2292 -83.6678 84° East 517 595 37,000  Level Cleveland Center
Fri 11:08:46 PM 42.2467 -83.4753 83° East 517 595 37,000  Level Cleveland Center
Fri 11:09:46 PM 42.2597 -83.2794 85° East 517 595 37,000  Level Cleveland Center
Fri 11:10:46 PM 42.2750 -83.0667 84° East 517 595 37,000  Level Cleveland Center
Fri 11:11:46 PM 42.2872 -82.8736 85° East 517 595 37,000  Level Cleveland Center
Fri 11:12:45 PM 42.3014 -82.6831 84° East 517 595 37,000  Level Cleveland Center
Fri 11:13:45 PM 42.3131 -82.4897 85° East 517 595 37,000  Level Cleveland Center
Fri 11:14:46 PM 42.3244 -82.2992 85° East 517 595 37,000  Level Cleveland Center
Fri 11:15:46 PM 42.3397 -82.1083 84° East 517 595 37,000  Level Cleveland Center
Fri 11:16:46 PM 42.3525 -81.9178 85° East 517 595 37,000  Level Cleveland Center
Fri 11:17:46 PM 42.3650 -81.7211 85° East 517 595 37,000  Level Cleveland Center
Fri 11:18:46 PM 42.3750 -81.5331 86° East 517 595 37,000  Level Cleveland Center
Fri 11:19:46 PM 42.3825 -81.3589 87° East 517 595 37,000  Level Cleveland Center
Fri 11:20:46 PM 42.3942 -81.1622 85° East 517 595 37,000  Level Cleveland Center
Fri 11:21:46 PM 42.4033 -80.9683 86° East 517 595 37,000  Level Cleveland Center
Fri 11:22:46 PM 42.4164 -80.7772 85° East 517 595 37,000  Level Cleveland Center
Fri 11:23:46 PM 42.4269 -80.5889 86° East 509 586 37,000  Level Cleveland Center
Fri 11:24:46 PM 42.4331 -80.3892 88° East 519 597 37,000  Level Cleveland Center
Fri 11:25:46 PM 42.4450 -80.1836 85° East 514 592 37,000  Level Cleveland Center
Fri 11:26:46 PM 42.4503 -79.9894 88° East 514 592 37,000  Level Cleveland Center
Fri 11:27:46 PM 42.4597 -79.7981 86° East 514 592 37,000  Level Cleveland Center
Fri 11:28:46 PM 42.4686 -79.6206 86° East 514 592 37,000  Level Cleveland Center
Fri 11:29:46 PM 42.4775 -79.4261 86° East 519 597 37,000  Level Cleveland Center
Fri 11:30:46 PM 42.4836 -79.2317 87° East 519 597 37,000  Level Cleveland Center
Fri 11:31:46 PM 42.4917 -79.0372 87° East 519 597 37,000  Level Cleveland Center
Fri 11:32:46 PM 42.4972 -78.8428 88° East 519 597 37,000  Level Cleveland Center
Fri 11:33:46 PM 42.5044 -78.6456 87° East 519 597 37,000  Level Cleveland Center
Fri 11:34:46 PM 42.5094 -78.4511 88° East 519 597 37,000  Level Cleveland Center
Fri 11:35:45 PM 42.5158 -78.2536 87° East 519 597 37,000  Level Cleveland Center
Fri 11:36:46 PM 42.5203 -78.0589 88° East 519 597 37,000  Level Cleveland Center
Fri 11:37:46 PM 42.5242 -77.8672 88° East 519 597 37,000  Level Cleveland Center
Fri 11:38:46 PM 42.5297 -77.6725 88° East 519 597 37,000 -50 Level Cleveland Center
Fri 11:39:46 PM 42.5325 -77.4528 89° East 524 603 36,900 -373 Descending Cleveland Center
Fri 11:42:15 PM 42.5431 -76.9808 88° East 522 601 35,700 -488 Descending Boston Center
Fri 11:43:15 PM 42.5486 -76.7836 88° East 522 601 35,200 -350 Descending Boston Center
Fri 11:44:15 PM 42.5500 -76.5808 89° East 527 606 35,000 -100 Descending Boston Center
Fri 11:45:15 PM 42.5528 -76.3836 89° East 527 606 35,000  Level Boston Center
Fri 11:46:15 PM 42.5561 -76.1639 89° East 527 606 35,000 -200 Level Boston Center
Fri 11:47:15 PM 42.5353 -75.9681 98° East 527 606 34,600 -450 Descending Boston Center
Fri 11:48:15 PM 42.5017 -75.7692 103° East 532 612 34,100 -500 Descending Boston Center
Fri 11:49:15 PM 42.4697 -75.5758 103° East 532 612 33,600 -500 Descending Boston Center
Fri 11:50:15 PM 42.4372 -75.3856 103° East 525 604 33,100 -500 Descending Boston Center
Fri 11:51:15 PM 42.4025 -75.1956 104° East 520 598 32,600 -500 Descending Boston Center
Fri 11:52:15 PM 42.3672 -75.0003 104° East 520 598 32,100 -500 Descending Boston Center
Fri 11:53:15 PM 42.3339 -74.8106 103° East 520 598 31,600 -750 Descending Boston Center
Fri 11:54:15 PM 42.3003 -74.6211 103° East 520 598 30,600 -1,500 Descending Boston Center
Fri 11:55:15 PM 42.2661 -74.4292 103° East 520 598 28,600 -2,050 Descending Boston Center
Fri 11:56:15 PM 42.2358 -74.2544 103° East 501 577 26,500 -2,000 Descending Boston Center
Fri 11:57:15 PM 42.2050 -74.0853 104° East 479 551 24,600 -2,150 Descending Boston Center
Fri 11:58:15 PM 42.1739 -73.9192 104° East 466 536 22,200 -2,950 Descending Boston Center
Fri 11:59:15 PM 42.1447 -73.7533 103° East 454 522 18,700 -3,550 Descending Boston Center
Sat 12:00:15 AM 42.1153 -73.6044 105° East 439 505 15,100 -3,526 Descending Boston Center
Sat 12:01:09 AM 42.0872 -73.4694 106° East 412 474 12,000 -2,500 Descending Boston Center
Sat 12:01:51 AM 42.0714 -73.3742 103° East 395 455 11,100 -909 Descending Boston Center
Sat 12:02:15 AM 42.0636 -73.3125 100° East 392 451 11,000 -98 Descending Boston Center
Sat 12:02:52 AM 42.0453 -73.2342 107° East 385 443 11,000  Level Boston Center
Sat 12:03:15 AM 42.0353 -73.1781 103° East 384 442 11,000 -100 Level Boston Center
Sat 12:03:52 AM 42.0275 -73.1053 98° East 342 394 10,900 -500 Descending Boston Center
Sat 12:04:15 AM 42.0319 -73.0689 81° East 346 398 10,500 -2,361 Descending Boston Center
Sat 12:04:53 AM 42.0406 -72.9853 82° East 309 356 8,500 -2,700 Descending Boston Center
Sat 12:05:15 AM 42.0469 -72.9489 77° East 306 352 7,800 -2,459 Descending Boston Center
Sat 12:05:54 AM 42.0558 -72.8736 81° East 299 344 6,000 -2,500 Descending Boston Center
Sat 12:06:15 AM 42.0578 -72.8400 86° East 295 339 5,300 -2,455 Descending Boston Center
Sat 12:07:00 AM 42.0686 -72.7617 79° East 285 328 3,300 -2,200 Descending Boston Center
Sat 12:07:15 AM 42.0728 -72.7339 79° East 295 339 3,100 -295 Descending Boston Center
Sat 12:08:01 AM 42.0772 -72.6583 85° East 279 321 3,000 -57 Descending Boston Center
Sat 12:09:01 AM 42.0731 -72.5658 93° East 232 267 3,000 -347 Level Boston Center
Sat 12:10:02 AM 42.0314 -72.5631 177° South 173 199 2,300 -689 Descending Boston Center
Sat 12:11:03 AM 42.0044 -72.6050 229° Southwest 146 168 1,600 -626 Descending Boston Center
Sat 12:11:57 AM 41.9792 -72.6328 219° Southwest 128 147 1,100 -583 Descending Boston Center
Sat 12:12:15 AM 41.9750 -72.6411 236° Southwest 128 147 900 -689 Descending Boston Center
Sat 12:12:58 AM 41.9522 -72.6661 219° Southwest 127 146 400 -600 Descending Boston Center
Sat 12:13:15 AM 41.9478 -72.6775 242° Southwest 133 153 300 -78 Descending Boston Center
Sat 12:14:15 AM 41.9250 -72.7081 225° Southwest 133 153 300 9,350 Level Boston Center
Sat 12:15:15 AM 41.8997 -72.7442 227° Southwest 133 153 19,000 18,700 Climbing Boston Center

Login

Don't have an account? Register now (free) for customized features, flight alerts, and more!